Time;durP1;ratioP1;P1;durP2;ratioP2;P2;SDS_P1;SDS_P2;PMS_P1;PMS_P2;Temp;Humidity;BMP_temperature;BMP_pressure;BME280_temperature;BME280_humidity;BME280_pressure;Samples;Min_cycle;Max_cycle;Signal;HPM_P1;HPM_P2
2021/09/01 00:01:04;;;;;;;11.70;4.10;;;16.20;97.50;;;;;;5106622;28;20031;-71
2021/09/01 00:03:30;;;;;;;9.07;3.75;;;16.20;97.80;;;;;;5092000;28;20042;-70
2021/09/01 00:05:55;;;;;;;11.43;3.47;;;16.10;97.60;;;;;;5089960;28;20077;-69
2021/09/01 00:08:21;;;;;;;10.38;3.60;;;16.20;97.80;;;;;;5098670;28;20059;-70
2021/09/01 00:10:46;;;;;;;10.20;3.97;;;16.20;97.50;;;;;;5104249;28;20051;-70
2021/09/01 00:13:12;;;;;;;12.43;4.35;;;16.20;97.40;;;;;;5099407;28;20040;-70
2021/09/01 00:15:38;;;;;;;10.18;3.70;;;16.10;97.40;;;;;;5069720;28;20377;-71
2021/09/01 00:18:03;;;;;;;10.13;3.55;;;16.20;97.50;;;;;;5087558;28;20484;-71
2021/09/01 00:20:29;;;;;;;10.20;4.03;;;16.20;97.40;;;;;;5095915;28;20024;-71
2021/09/01 00:22:55;;;;;;;10.35;4.30;;;16.20;97.40;;;;;;5069376;28;20028;-70
2021/09/01 00:25:21;;;;;;;9.05;3.70;;;16.20;97.40;;;;;;5098150;28;20032;-70
2021/09/01 00:27:46;;;;;;;9.07;3.70;;;16.20;97.20;;;;;;5087415;28;20027;-69
2021/09/01 00:30:12;;;;;;;9.35;3.65;;;16.10;97.40;;;;;;5068630;28;20032;-70
2021/09/01 00:32:38;;;;;;;9.20;3.47;;;16.10;97.50;;;;;;5107178;28;20023;-72
2021/09/01 00:35:05;;;;;;;14.27;4.40;;;16.20;97.80;;;;;;5107806;28;20026;-70
2021/09/01 00:37:30;;;;;;;10.02;3.92;;;16.20;97.70;;;;;;5107916;28;20072;-70
2021/09/01 00:39:56;;;;;;;12.07;4.80;;;16.20;97.40;;;;;;5087126;28;20028;-70
2021/09/01 00:42:21;;;;;;;8.82;3.40;;;16.20;97.60;;;;;;5093843;28;20970;-69
2021/09/01 00:44:47;;;;;;;11.52;5.18;;;16.20;97.50;;;;;;5100703;28;20039;-72
2021/09/01 00:47:16;;;;;;;10.02;3.92;;;16.20;97.80;;;;;;5107638;28;20107;-70
2021/09/01 00:49:42;;;;;;;8.20;3.72;;;16.20;97.60;;;;;;5089007;28;20053;-71
2021/09/01 00:52:08;;;;;;;10.55;4.30;;;16.20;97.60;;;;;;5094659;28;20451;-69
2021/09/01 00:54:33;;;;;;;9.55;3.80;;;16.20;97.50;;;;;;5096645;28;20137;-72
2021/09/01 00:57:04;;;;;;;8.45;3.70;;;16.20;97.40;;;;;;5086852;28;20032;-69
2021/09/01 00:59:32;;;;;;;10.05;4.05;;;16.20;97.20;;;;;;5086496;28;20328;-69
2021/09/01 01:01:59;;;;;;;8.57;3.50;;;16.20;97.50;;;;;;5086847;28;20024;-71
2021/09/01 01:04:29;;;;;;;8.95;3.80;;;16.20;97.60;;;;;;5093613;28;20031;-68
2021/09/01 01:07:08;;;;;;;10.57;4.07;;;16.20;97.60;;;;;;5070212;28;20119;-70
2021/09/01 01:09:36;;;;;;;10.60;3.55;;;16.10;97.50;;;;;;5086714;28;20035;-72
2021/09/01 01:12:10;;;;;;;9.68;3.55;;;16.20;97.50;;;;;;5101245;28;20058;-71
2021/09/01 01:14:44;;;;;;;12.13;4.65;;;16.20;97.70;;;;;;5107101;28;20016;-71
2021/09/01 01:17:11;;;;;;;10.48;3.33;;;16.20;97.70;;;;;;5102508;28;20054;-70
2021/09/01 01:19:48;;;;;;;10.88;4.30;;;16.20;97.70;;;;;;5068241;28;20024;-72
2021/09/01 01:22:16;;;;;;;7.18;3.40;;;16.20;97.50;;;;;;5101875;28;20046;-70
2021/09/01 01:24:57;;;;;;;11.02;4.00;;;16.20;97.50;;;;;;5088532;28;20399;-71
2021/09/01 01:27:29;;;;;;;9.15;4.18;;;16.20;97.50;;;;;;5105140;28;20031;-70
2021/09/01 01:30:15;;;;;;;8.98;4.07;;;16.20;97.70;;;;;;5074466;28;20088;-69
2021/09/01 01:32:43;;;;;;;9.25;3.63;;;16.10;98.00;;;;;;5105149;28;20036;-69
2021/09/01 01:35:09;;;;;;;13.68;4.20;;;16.10;97.90;;;;;;5088262;28;20049;-69
2021/09/01 01:37:35;;;;;;;13.68;4.22;;;16.20;97.90;;;;;;5087931;28;20077;-70
2021/09/01 01:40:01;;;;;;;10.55;3.72;;;16.20;97.90;;;;;;5106113;28;20418;-69
2021/09/01 01:42:27;;;;;;;9.07;3.90;;;16.20;97.70;;;;;;5089778;28;20087;-72
2021/09/01 01:44:53;;;;;;;9.95;4.00;;;16.20;97.40;;;;;;5085788;28;20530;-71
2021/09/01 01:47:18;;;;;;;8.57;3.40;;;16.20;97.70;;;;;;5087185;28;20028;-71
2021/09/01 01:49:44;;;;;;;9.32;3.83;;;16.20;97.70;;;;;;5085272;28;20089;-69
2021/09/01 01:52:09;;;;;;;9.02;3.72;;;16.20;97.50;;;;;;5085972;28;20066;-71
2021/09/01 01:54:35;;;;;;;10.30;3.67;;;16.20;97.90;;;;;;5076922;28;20031;-71
2021/09/01 01:57:01;;;;;;;9.55;4.00;;;16.10;97.80;;;;;;5105543;28;20028;-69
2021/09/01 01:59:26;;;;;;;9.10;3.70;;;16.10;97.90;;;;;;5085493;28;20024;-71
2021/09/01 02:01:52;;;;;;;8.15;3.78;;;16.10;97.80;;;;;;5085880;28;20031;-69
2021/09/01 02:04:18;;;;;;;8.57;3.72;;;16.10;97.90;;;;;;5085957;28;20032;-71
2021/09/01 02:06:44;;;;;;;7.88;3.90;;;16.10;97.60;;;;;;5085811;28;20020;-70
2021/09/01 02:09:09;;;;;;;9.35;4.05;;;16.20;97.70;;;;;;5086483;28;20111;-70
2021/09/01 02:11:35;;;;;;;9.07;3.92;;;16.20;98.00;;;;;;5085707;28;20020;-71
2021/09/01 02:14:01;;;;;;;8.82;3.60;;;16.20;97.70;;;;;;5068098;28;20046;-71
2021/09/01 02:16:26;;;;;;;9.02;4.07;;;16.20;97.80;;;;;;5089951;28;20023;-68
2021/09/01 02:18:52;;;;;;;9.88;3.70;;;16.20;97.80;;;;;;5093912;28;20066;-71
2021/09/01 02:21:17;;;;;;;8.70;3.60;;;16.20;97.70;;;;;;5070545;28;20389;-71
2021/09/01 02:23:43;;;;;;;8.23;3.97;;;16.10;97.70;;;;;;5086073;28;20039;-70
2021/09/01 02:26:08;;;;;;;10.23;4.13;;;16.20;97.90;;;;;;5087315;28;20028;-69
2021/09/01 02:28:34;;;;;;;11.32;4.78;;;16.10;98.00;;;;;;5095499;28;20035;-70
2021/09/01 02:30:59;;;;;;;10.18;3.83;;;16.10;97.90;;;;;;5105882;28;20036;-70
2021/09/01 02:33:25;;;;;;;10.88;4.30;;;16.20;97.70;;;;;;5087037;28;20084;-70
2021/09/01 02:35:50;;;;;;;9.77;3.92;;;16.10;98.00;;;;;;5105840;28;20488;-70
2021/09/01 02:38:16;;;;;;;9.82;4.28;;;16.20;97.70;;;;;;5097491;28;20033;-69
2021/09/01 02:40:41;;;;;;;10.30;3.78;;;16.20;97.80;;;;;;5085168;28;20089;-71
2021/09/01 02:43:07;;;;;;;9.95;3.95;;;16.10;97.60;;;;;;5085024;28;20062;-71
2021/09/01 02:45:32;;;;;;;11.73;4.30;;;16.10;97.50;;;;;;5085395;28;20035;-71
2021/09/01 02:47:58;;;;;;;9.25;3.88;;;16.10;97.50;;;;;;5088697;28;20036;-71
2021/09/01 02:50:24;;;;;;;9.55;4.00;;;16.10;97.10;;;;;;5099263;28;20414;-73
2021/09/01 02:52:49;;;;;;;13.07;3.60;;;16.10;97.30;;;;;;5100300;28;20039;-70
2021/09/01 02:55:15;;;;;;;11.00;3.95;;;16.20;97.30;;;;;;5082806;28;20020;-70
2021/09/01 02:57:41;;;;;;;10.00;3.97;;;16.10;96.60;;;;;;5091410;28;20439;-70
2021/09/01 03:00:07;;;;;;;9.27;3.92;;;16.20;96.60;;;;;;5090569;28;20031;-71
2021/09/01 03:02:33;;;;;;;9.23;3.70;;;16.10;96.20;;;;;;5089330;28;20039;-70
2021/09/01 03:04:59;;;;;;;9.38;3.88;;;16.10;95.90;;;;;;5089195;28;20020;-70
2021/09/01 03:07:24;;;;;;;8.90;3.60;;;16.10;95.00;;;;;;5092932;28;20059;-71
2021/09/01 03:09:50;;;;;;;7.38;3.42;;;16.10;96.20;;;;;;5095362;28;20101;-72
2021/09/01 03:12:15;;;;;;;9.40;3.08;;;16.10;95.80;;;;;;5089155;28;20024;-71
2021/09/01 03:14:41;;;;;;;8.27;3.17;;;16.10;93.30;;;;;;5088820;28;20024;-69
2021/09/01 03:17:06;;;;;;;8.75;3.50;;;16.10;94.00;;;;;;5089031;28;20020;-72
2021/09/01 03:19:32;;;;;;;10.38;3.70;;;16.00;94.50;;;;;;5091793;28;20038;-71
2021/09/01 03:21:58;;;;;;;8.70;3.38;;;16.10;95.10;;;;;;5098371;28;20028;-71
2021/09/01 03:24:23;;;;;;;6.57;3.10;;;16.10;95.00;;;;;;5090886;28;20036;-70
2021/09/01 03:26:49;;;;;;;10.23;3.75;;;16.10;94.10;;;;;;5109130;28;20046;-71
2021/09/01 03:29:14;;;;;;;9.07;3.30;;;16.10;93.90;;;;;;5100698;28;20028;-71
2021/09/01 03:31:40;;;;;;;10.63;3.45;;;16.10;94.70;;;;;;5088406;28;20020;-70
2021/09/01 03:34:05;;;;;;;8.80;3.67;;;16.10;93.90;;;;;;5073565;28;20034;-72
2021/09/01 03:36:31;;;;;;;9.38;3.20;;;16.10;94.40;;;;;;5108758;28;20016;-69
2021/09/01 03:38:57;;;;;;;7.03;3.13;;;16.10;94.70;;;;;;5107831;28;20024;-71
2021/09/01 03:41:22;;;;;;;8.00;3.20;;;16.10;95.50;;;;;;5108652;28;20058;-71
2021/09/01 03:43:48;;;;;;;10.40;3.60;;;16.10;95.90;;;;;;5078481;28;20118;-70
2021/09/01 03:46:13;;;;;;;7.00;3.20;;;16.10;96.00;;;;;;5086899;28;20039;-70
2021/09/01 03:48:39;;;;;;;7.40;3.17;;;16.00;96.20;;;;;;5098322;28;20032;-70
2021/09/01 03:51:04;;;;;;;8.73;3.72;;;16.00;95.90;;;;;;5088073;28;20036;-72
2021/09/01 03:53:30;;;;;;;8.82;3.35;;;16.00;95.70;;;;;;5094989;28;20035;-70
2021/09/01 03:55:56;;;;;;;7.60;3.22;;;16.00;95.90;;;;;;5108591;28;20020;-72
2021/09/01 03:58:21;;;;;;;8.35;3.30;;;16.00;95.90;;;;;;5100864;28;20031;-71
2021/09/01 04:00:47;;;;;;;10.32;4.13;;;16.00;96.50;;;;;;5069583;28;20388;-72
2021/09/01 04:03:12;;;;;;;8.38;3.63;;;16.00;96.60;;;;;;5070771;28;20113;-69
2021/09/01 04:05:38;;;;;;;8.50;3.83;;;16.10;96.60;;;;;;5103417;28;20036;-70
2021/09/01 04:08:04;;;;;;;9.27;3.72;;;16.00;96.90;;;;;;5088661;28;20559;-72
2021/09/01 04:10:29;;;;;;;10.23;3.88;;;16.10;96.90;;;;;;5087891;28;20032;-70
2021/09/01 04:12:55;;;;;;;8.93;3.53;;;16.00;96.70;;;;;;5100866;28;20042;-69
2021/09/01 04:15:20;;;;;;;7.55;3.40;;;16.00;96.80;;;;;;5073894;28;20793;-70
2021/09/01 04:17:46;;;;;;;8.20;3.30;;;16.00;97.10;;;;;;5088001;28;20089;-70
2021/09/01 04:20:12;;;;;;;9.20;3.47;;;16.00;97.00;;;;;;5087591;28;20035;-70
2021/09/01 04:22:37;;;;;;;9.23;3.75;;;16.00;97.00;;;;;;5087766;28;20651;-69
2021/09/01 04:25:04;;;;;;;9.90;3.80;;;16.00;97.10;;;;;;5091918;28;20027;-69
2021/09/01 04:27:30;;;;;;;8.45;3.47;;;16.00;97.00;;;;;;5084087;28;20601;-70
2021/09/01 04:29:55;;;;;;;11.20;3.72;;;16.00;97.00;;;;;;5104403;28;20032;-70
2021/09/01 04:32:21;;;;;;;10.57;3.97;;;16.00;97.40;;;;;;5105920;28;20077;-71
2021/09/01 04:34:47;;;;;;;8.70;3.80;;;16.00;97.40;;;;;;5075295;28;20028;-71
2021/09/01 04:37:12;;;;;;;10.05;3.80;;;16.00;97.30;;;;;;5103268;28;20043;-70
2021/09/01 04:39:38;;;;;;;9.40;3.55;;;16.00;97.30;;;;;;5085581;28;20438;-72
2021/09/01 04:42:04;;;;;;;10.23;4.07;;;16.00;97.50;;;;;;5107850;28;20055;-70
2021/09/01 04:44:29;;;;;;;11.57;3.95;;;16.00;97.40;;;;;;5101698;28;20036;-70
2021/09/01 04:46:55;;;;;;;8.98;3.78;;;16.00;97.50;;;;;;5075388;28;20023;-72
2021/09/01 04:49:21;;;;;;;9.50;4.28;;;16.00;97.70;;;;;;5092965;28;20031;-71
2021/09/01 04:51:46;;;;;;;8.82;3.63;;;15.90;97.80;;;;;;5094770;28;20530;-71
2021/09/01 04:54:12;;;;;;;7.95;3.20;;;16.00;98.60;;;;;;5096211;28;20024;-72
2021/09/01 04:56:37;;;;;;;9.95;3.28;;;16.00;98.40;;;;;;5086991;28;20020;-70
2021/09/01 04:59:03;;;;;;;10.45;3.72;;;16.10;97.90;;;;;;5095821;28;20095;-70
2021/09/01 05:01:28;;;;;;;10.88;4.18;;;16.10;96.80;;;;;;5080341;28;20041;-70
2021/09/01 05:03:54;;;;;;;8.95;3.67;;;16.10;96.80;;;;;;5101488;28;20020;-72
2021/09/01 05:06:19;;;;;;;9.10;3.70;;;16.10;97.10;;;;;;5087952;28;20568;-69
2021/09/01 05:08:45;;;;;;;8.93;4.00;;;16.00;97.30;;;;;;5093695;28;20027;-72
2021/09/01 05:11:10;;;;;;;8.55;3.67;;;16.00;97.70;;;;;;5099397;28;20032;-72
2021/09/01 05:13:36;;;;;;;9.98;4.28;;;16.00;97.40;;;;;;5097052;28;20532;-73
2021/09/01 05:16:03;;;;;;;8.88;4.07;;;16.10;97.10;;;;;;5093188;28;20114;-71
2021/09/01 05:18:28;;;;;;;8.40;3.50;;;16.00;97.50;;;;;;5086289;28;20016;-71
2021/09/01 05:20:58;;;;;;;8.68;3.97;;;16.00;97.50;;;;;;5084187;28;20405;-71
2021/09/01 05:23:33;;;;;;;9.15;3.75;;;16.00;97.60;;;;;;5097961;28;20032;-70
2021/09/01 05:26:01;;;;;;;6.95;3.53;;;16.00;97.30;;;;;;5067341;28;20628;-69
2021/09/01 05:28:30;;;;;;;10.77;4.90;;;16.00;97.80;;;;;;5085327;28;20028;-71
2021/09/01 05:30:58;;;;;;;9.18;3.67;;;16.00;97.70;;;;;;5091620;28;20030;-71
2021/09/01 05:33:30;;;;;;;8.98;3.85;;;16.00;97.80;;;;;;5092392;28;20031;-71
2021/09/01 05:35:57;;;;;;;8.73;3.58;;;16.00;97.50;;;;;;5096792;28;20033;-71
2021/09/01 05:38:22;;;;;;;9.45;3.83;;;16.00;98.30;;;;;;5075576;28;20113;-69
2021/09/01 05:40:50;;;;;;;8.98;3.95;;;16.00;97.60;;;;;;5085445;28;20040;-71
2021/09/01 05:43:17;;;;;;;9.85;4.03;;;16.10;97.30;;;;;;5069927;28;20032;-71
2021/09/01 05:45:45;;;;;;;8.00;3.55;;;16.00;97.30;;;;;;5093084;28;20369;-71
2021/09/01 05:48:11;;;;;;;8.43;4.10;;;16.10;96.60;;;;;;5090103;28;20024;-70
2021/09/01 05:50:39;;;;;;;12.43;4.03;;;16.00;97.00;;;;;;5093598;28;20043;-71
2021/09/01 05:53:04;;;;;;;7.05;3.25;;;16.00;97.40;;;;;;5065780;28;20055;-71
2021/09/01 05:55:32;;;;;;;10.18;3.30;;;16.00;97.80;;;;;;5084574;28;20028;-71
2021/09/01 05:58:01;;;;;;;8.55;3.50;;;16.10;97.50;;;;;;5084266;28;20024;-71
2021/09/01 06:00:53;;;;;;;11.10;4.15;;;16.10;97.20;;;;;;5085606;28;20048;-70
2021/09/01 06:03:37;;;;;;;11.15;3.63;;;16.10;96.70;;;;;;5085717;28;20027;-71
2021/09/01 06:06:04;;;;;;;8.63;3.53;;;16.00;96.70;;;;;;5067211;28;20130;-71
2021/09/01 06:08:34;;;;;;;8.48;3.55;;;16.10;96.40;;;;;;5067523;28;20027;-72
2021/09/01 06:11:05;;;;;;;7.30;3.60;;;16.10;96.70;;;;;;5085645;28;20039;-71
2021/09/01 06:13:31;;;;;;;11.68;3.90;;;16.10;96.90;;;;;;5087511;28;20389;-71
2021/09/01 06:15:57;;;;;;;8.80;3.67;;;16.10;96.20;;;;;;5090548;28;20161;-70
2021/09/01 06:18:23;;;;;;;7.85;3.25;;;16.10;96.50;;;;;;5074045;28;20287;-69
2021/09/01 06:20:49;;;;;;;8.48;3.10;;;16.10;97.60;;;;;;5084516;28;20626;-69
2021/09/01 06:23:15;;;;;;;9.85;3.50;;;16.20;97.90;;;;;;5079149;28;20039;-70
2021/09/01 06:25:40;;;;;;;10.70;3.30;;;16.30;97.80;;;;;;5092967;28;20028;-70
2021/09/01 06:28:07;;;;;;;7.80;3.35;;;16.30;97.60;;;;;;5094895;28;20031;-71
2021/09/01 06:30:33;;;;;;;7.97;3.13;;;16.40;97.60;;;;;;5076635;28;20031;-70
2021/09/01 06:32:59;;;;;;;10.25;3.60;;;16.40;97.20;;;;;;5075519;28;20081;-71
2021/09/01 06:35:26;;;;;;;7.50;3.45;;;16.40;97.00;;;;;;5093357;28;20044;-72
2021/09/01 06:37:51;;;;;;;10.98;3.67;;;16.40;97.40;;;;;;5099740;28;20517;-70
2021/09/01 06:40:18;;;;;;;7.75;3.40;;;16.40;97.10;;;;;;5092852;28;20032;-69
2021/09/01 06:42:44;;;;;;;8.68;3.70;;;16.40;96.90;;;;;;5079022;28;20039;-71
2021/09/01 06:45:11;;;;;;;10.48;4.22;;;16.40;96.40;;;;;;5093015;28;20209;-71
2021/09/01 06:47:39;;;;;;;7.95;3.40;;;16.50;96.50;;;;;;5094687;28;20077;-70
2021/09/01 06:50:05;;;;;;;7.15;3.53;;;16.50;96.70;;;;;;5076047;28;20038;-71
2021/09/01 06:52:31;;;;;;;10.05;3.60;;;16.50;96.40;;;;;;5092456;28;20028;-69
2021/09/01 06:54:57;;;;;;;10.70;3.70;;;16.50;96.30;;;;;;5093045;28;20028;-71
2021/09/01 06:57:22;;;;;;;9.35;3.88;;;16.50;96.50;;;;;;5095091;28;20020;-70
2021/09/01 06:59:48;;;;;;;8.65;3.78;;;16.50;96.10;;;;;;5091953;28;20059;-72
2021/09/01 07:02:13;;;;;;;11.00;4.43;;;16.50;96.30;;;;;;5089497;28;20467;-71
2021/09/01 07:04:39;;;;;;;11.88;4.40;;;16.50;95.70;;;;;;5098720;28;20038;-71
2021/09/01 07:07:04;;;;;;;9.90;3.33;;;16.50;95.20;;;;;;5077833;28;20061;-72
2021/09/01 07:09:30;;;;;;;10.13;3.53;;;16.50;93.00;;;;;;5093204;28;20488;-71
2021/09/01 07:11:55;;;;;;;9.30;3.20;;;16.50;94.30;;;;;;5091773;28;20368;-71
2021/09/01 07:14:21;;;;;;;9.63;3.10;;;16.50;94.40;;;;;;5091134;28;20030;-71
2021/09/01 07:16:46;;;;;;;12.63;3.30;;;16.50;93.10;;;;;;5069077;28;20027;-71
2021/09/01 07:19:12;;;;;;;8.52;3.35;;;16.50;93.00;;;;;;5086682;28;20040;-70
2021/09/01 07:21:37;;;;;;;9.80;3.45;;;16.50;93.10;;;;;;5090613;28;20489;-70
2021/09/01 07:24:03;;;;;;;7.95;3.53;;;16.60;93.20;;;;;;5071986;28;20403;-72
2021/09/01 07:26:29;;;;;;;7.20;3.10;;;16.50;92.50;;;;;;5072603;28;20088;-70
2021/09/01 07:28:54;;;;;;;11.20;3.67;;;16.50;92.60;;;;;;5066624;28;20032;-70
2021/09/01 07:31:20;;;;;;;9.45;2.88;;;16.50;91.60;;;;;;5091958;28;20036;-68
2021/09/01 07:33:45;;;;;;;9.25;3.20;;;16.50;91.30;;;;;;5084940;28;20118;-72
2021/09/01 07:36:11;;;;;;;11.00;3.70;;;16.60;92.00;;;;;;5105855;28;20099;-70
2021/09/01 07:38:36;;;;;;;12.27;3.50;;;16.60;92.00;;;;;;5090167;28;20110;-71
2021/09/01 07:41:02;;;;;;;11.77;4.00;;;16.60;91.40;;;;;;5090091;28;20016;-70
2021/09/01 07:43:29;;;;;;;9.70;3.67;;;16.60;92.30;;;;;;5090500;28;20016;-70
2021/09/01 07:45:55;;;;;;;12.10;3.97;;;16.60;92.10;;;;;;5090456;28;20116;-69
2021/09/01 07:48:21;;;;;;;9.85;3.92;;;16.60;92.10;;;;;;5086169;28;20114;-70
2021/09/01 07:50:46;;;;;;;10.88;3.33;;;16.60;91.40;;;;;;5074425;28;20484;-71
2021/09/01 07:53:12;;;;;;;10.45;3.97;;;16.60;91.80;;;;;;5079138;28;20192;-71
2021/09/01 07:55:37;;;;;;;9.32;3.17;;;16.60;90.70;;;;;;5070509;28;20024;-69
2021/09/01 07:58:03;;;;;;;9.02;3.22;;;16.60;91.10;;;;;;5075730;28;20130;-71
2021/09/01 08:00:30;;;;;;;10.75;3.33;;;16.60;91.50;;;;;;5089354;28;20290;-70
2021/09/01 08:02:55;;;;;;;9.98;3.55;;;16.70;91.30;;;;;;5082753;28;20032;-73
2021/09/01 08:05:22;;;;;;;12.50;3.70;;;16.70;90.50;;;;;;5089814;28;20310;-71
2021/09/01 08:07:48;;;;;;;11.82;3.75;;;16.60;91.00;;;;;;5089825;28;20030;-71
2021/09/01 08:10:14;;;;;;;10.10;3.83;;;16.70;91.10;;;;;;5072567;28;20427;-71
2021/09/01 08:12:40;;;;;;;10.52;3.65;;;16.60;91.40;;;;;;5072735;28;20054;-71
2021/09/01 08:15:08;;;;;;;9.65;3.53;;;16.60;91.20;;;;;;5078503;28;20023;-70
2021/09/01 08:17:34;;;;;;;10.93;3.65;;;16.70;91.20;;;;;;5097765;28;20420;-70
2021/09/01 08:19:59;;;;;;;9.30;3.50;;;16.60;90.90;;;;;;5069014;28;20031;-70
2021/09/01 08:22:25;;;;;;;9.70;3.50;;;16.60;91.10;;;;;;5087738;28;20028;-69
2021/09/01 08:24:50;;;;;;;7.60;3.35;;;16.60;91.10;;;;;;5070874;28;20043;-70
2021/09/01 08:27:16;;;;;;;11.10;3.70;;;16.70;91.90;;;;;;5087708;28;20105;-71
2021/09/01 08:29:42;;;;;;;9.82;3.30;;;16.70;91.60;;;;;;5068737;28;20028;-71
2021/09/01 08:32:08;;;;;;;9.00;3.55;;;16.70;91.50;;;;;;5074073;28;20038;-71
2021/09/01 08:34:34;;;;;;;9.50;3.70;;;16.70;91.30;;;;;;5076238;28;20369;-69
2021/09/01 08:37:02;;;;;;;10.95;3.30;;;16.70;91.40;;;;;;5088371;28;20039;-70
2021/09/01 08:39:27;;;;;;;10.10;3.70;;;16.70;90.90;;;;;;5087221;28;20013;-70
2021/09/01 08:41:53;;;;;;;9.25;3.50;;;16.80;91.80;;;;;;5068387;28;20388;-72
2021/09/01 08:44:20;;;;;;;11.68;3.72;;;16.80;91.80;;;;;;5096479;28;20020;-70
2021/09/01 08:46:49;;;;;;;9.00;3.03;;;16.80;91.80;;;;;;5082866;28;20032;-70
2021/09/01 08:49:19;;;;;;;9.77;3.70;;;16.80;91.10;;;;;;5089590;28;20118;-70
2021/09/01 08:51:46;;;;;;;7.85;3.60;;;16.80;91.40;;;;;;5092498;28;20505;-70
2021/09/01 08:54:12;;;;;;;9.70;3.38;;;16.80;91.80;;;;;;5068847;28;20388;-69
2021/09/01 08:56:38;;;;;;;10.50;4.18;;;16.80;91.40;;;;;;5087611;28;20032;-70
2021/09/01 08:59:04;;;;;;;10.80;3.97;;;16.80;90.40;;;;;;5084241;28;20019;-71
2021/09/01 09:01:53;;;;;;;10.52;3.70;;;16.80;90.70;;;;;;5090565;28;20024;-71
2021/09/01 09:04:21;;;;;;;11.00;3.42;;;16.80;90.20;;;;;;5091593;28;20112;-69
2021/09/01 09:06:49;;;;;;;10.20;3.35;;;16.70;90.40;;;;;;5090285;28;20396;-69
2021/09/01 09:09:17;;;;;;;11.30;4.18;;;16.70;90.50;;;;;;5069855;28;20047;-71
2021/09/01 09:11:43;;;;;;;10.75;3.90;;;16.70;91.10;;;;;;5088656;28;20081;-71
2021/09/01 09:14:23;;;;;;;8.10;3.30;;;16.70;91.00;;;;;;5105715;28;20548;-69
2021/09/01 09:17:19;;;;;;;10.15;3.22;;;16.70;90.90;;;;;;5087872;28;20365;-71
2021/09/01 09:20:08;;;;;;;10.05;3.35;;;16.70;91.30;;;;;;5062053;28;20055;-70
2021/09/01 09:22:35;;;;;;;10.25;3.72;;;16.70;91.40;;;;;;5096076;28;20028;-72
2021/09/01 09:25:21;;;;;;;8.43;3.25;;;16.70;91.70;;;;;;5102792;28;20475;-71
2021/09/01 09:27:53;;;;;;;10.80;3.97;;;16.80;92.00;;;;;;5087877;28;20032;-69
2021/09/01 09:30:46;;;;;;;9.27;3.42;;;16.70;92.10;;;;;;5067492;28;20032;-69
2021/09/01 09:33:22;;;;;;;9.35;3.80;;;16.80;92.10;;;;;;5086536;28;20036;-71
2021/09/01 09:36:02;;;;;;;10.50;3.50;;;16.80;92.30;;;;;;5084903;28;20171;-69
2021/09/01 09:38:42;;;;;;;9.93;3.85;;;16.80;92.40;;;;;;5085928;28;20662;-71
2021/09/01 09:41:29;;;;;;;7.90;3.30;;;16.80;92.40;;;;;;5085736;28;20035;-70
2021/09/01 09:44:04;;;;;;;10.25;3.33;;;16.80;91.70;;;;;;5086035;28;20089;-72
2021/09/01 09:46:31;;;;;;;9.88;3.80;;;16.80;92.20;;;;;;5085671;28;20039;-73
2021/09/01 09:49:08;;;;;;;9.30;3.65;;;16.80;92.10;;;;;;5085707;28;20110;-72
2021/09/01 09:51:42;;;;;;;8.93;3.45;;;16.80;91.10;;;;;;5085854;28;20508;-71
2021/09/01 09:54:18;;;;;;;11.07;3.85;;;16.90;91.90;;;;;;5067622;28;20496;-72
2021/09/01 09:56:45;;;;;;;10.85;3.78;;;16.90;91.80;;;;;;5085691;28;20020;-71
2021/09/01 09:59:19;;;;;;;11.55;3.30;;;16.90;90.70;;;;;;5084509;28;20026;-71
2021/09/01 10:01:46;;;;;;;10.05;3.67;;;16.90;91.40;;;;;;5067782;28;20028;-72
2021/09/01 10:04:12;;;;;;;11.68;3.72;;;17.00;91.80;;;;;;5067157;28;20081;-71
2021/09/01 10:06:39;;;;;;;11.07;3.53;;;17.00;92.00;;;;;;5067269;28;20028;-70
2021/09/01 10:09:05;;;;;;;8.40;3.78;;;17.00;92.10;;;;;;5084950;28;20032;-70
2021/09/01 10:11:33;;;;;;;8.32;3.30;;;17.00;91.80;;;;;;5085495;28;20507;-71
2021/09/01 10:13:59;;;;;;;10.23;3.75;;;17.00;91.50;;;;;;5067226;28;20130;-70
2021/09/01 10:16:33;;;;;;;8.45;3.67;;;17.00;91.50;;;;;;5085374;28;20099;-70
2021/09/01 10:19:14;;;;;;;9.10;3.72;;;17.10;91.40;;;;;;5067449;28;20024;-70
2021/09/01 10:21:41;;;;;;;;;;;17.10;91.60;;;;;;5067630;28;20043;-71
2021/09/01 10:24:28;;;;;;;9.73;3.80;;;17.10;91.80;;;;;;5085397;28;20002;-72
2021/09/01 10:27:03;;;;;;;9.55;3.60;;;17.10;91.70;;;;;;5066930;28;20024;-71
2021/09/01 10:29:57;;;;;;;8.90;3.60;;;17.10;91.80;;;;;;5084836;28;20710;-70
2021/09/01 10:32:29;;;;;;;8.50;3.55;;;17.10;92.10;;;;;;5066972;28;20042;-72
2021/09/01 10:35:13;;;;;;;11.45;4.20;;;17.20;92.10;;;;;;5067291;28;20472;-71
2021/09/01 10:37:51;;;;;;;10.32;3.90;;;17.10;92.30;;;;;;5084775;28;21041;-71
2021/09/01 10:40:25;;;;;;;9.73;3.97;;;17.10;92.70;;;;;;5084948;28;20032;-73
2021/09/01 10:42:55;;;;;;;9.90;3.45;;;17.10;92.50;;;;;;5066501;28;20035;-70
2021/09/01 10:45:46;;;;;;;11.40;3.92;;;17.10;92.50;;;;;;5066970;28;20412;-70
2021/09/01 10:48:12;;;;;;;8.60;3.17;;;17.10;92.40;;;;;;5084713;28;20032;-72
2021/09/01 10:50:49;;;;;;;9.68;3.95;;;17.10;92.30;;;;;;5066630;28;20036;-70
2021/09/01 10:53:20;;;;;;;9.63;4.00;;;17.10;92.30;;;;;;5084880;28;20028;-71
2021/09/01 10:56:12;;;;;;;10.02;3.70;;;17.10;92.20;;;;;;5066990;28;20496;-71
2021/09/01 10:58:43;;;;;;;12.90;3.90;;;17.10;92.20;;;;;;5084554;28;20028;-72
2021/09/01 11:01:18;;;;;;;10.77;4.03;;;17.20;92.20;;;;;;5084826;28;20028;-70
2021/09/01 11:04:03;;;;;;;9.43;4.20;;;17.10;92.20;;;;;;5084853;28;20442;-71
2021/09/01 11:06:33;;;;;;;10.20;3.90;;;17.20;92.40;;;;;;5085212;28;20035;-71
2021/09/01 11:09:10;;;;;;;11.13;3.97;;;17.20;92.50;;;;;;5084778;28;20028;-71
2021/09/01 11:11:53;;;;;;;11.02;4.10;;;17.20;92.40;;;;;;5070762;28;20028;-71
2021/09/01 11:14:38;;;;;;;9.85;3.65;;;17.20;91.40;;;;;;5088818;28;20028;-71
2021/09/01 11:17:09;;;;;;;8.82;3.67;;;17.20;91.70;;;;;;5088614;28;20024;-70
2021/09/01 11:19:36;;;;;;;11.27;4.40;;;17.20;91.90;;;;;;5088124;28;20454;-70
2021/09/01 11:22:22;;;;;;;8.77;3.83;;;17.30;91.90;;;;;;5088769;28;20076;-73
2021/09/01 11:24:51;;;;;;;9.02;3.60;;;17.30;92.00;;;;;;5088660;28;20058;-70
2021/09/01 11:27:22;;;;;;;9.57;4.00;;;17.30;92.10;;;;;;5070340;28;20032;-71
2021/09/01 11:29:49;;;;;;;8.63;3.67;;;17.30;91.90;;;;;;5088379;28;20032;-71
2021/09/01 11:32:16;;;;;;;8.68;3.60;;;17.30;92.00;;;;;;5088190;28;20039;-69
2021/09/01 11:34:42;;;;;;;9.77;3.60;;;17.30;92.00;;;;;;5088402;28;20031;-71
2021/09/01 11:37:07;;;;;;;9.10;3.67;;;17.30;92.20;;;;;;5088431;28;20101;-70
2021/09/01 11:39:40;;;;;;;11.00;4.38;;;17.30;92.30;;;;;;5088275;28;20042;-71
2021/09/01 11:42:06;;;;;;;9.15;4.07;;;17.30;91.90;;;;;;5088170;28;20059;-70
2021/09/01 11:44:32;;;;;;;9.40;4.53;;;17.30;91.90;;;;;;5088133;28;20052;-71
2021/09/01 11:46:57;;;;;;;9.10;4.05;;;17.30;92.00;;;;;;5087998;28;20078;-71
2021/09/01 11:49:23;;;;;;;11.52;3.78;;;17.30;92.00;;;;;;5069852;28;20571;-71
2021/09/01 11:51:49;;;;;;;9.23;4.18;;;17.30;91.90;;;;;;5087946;28;20042;-71
2021/09/01 11:54:16;;;;;;;9.13;4.28;;;17.30;92.20;;;;;;5088014;28;20115;-71
2021/09/01 11:56:41;;;;;;;7.97;3.60;;;17.40;92.30;;;;;;5087883;28;20016;-71
2021/09/01 11:59:09;;;;;;;8.82;4.20;;;17.40;92.00;;;;;;5096481;28;20039;-69
2021/09/01 12:01:45;;;;;;;9.52;3.88;;;17.40;91.70;;;;;;5107120;28;20059;-72
2021/09/01 12:04:14;;;;;;;9.65;4.25;;;17.40;91.90;;;;;;5106953;28;20456;-72
2021/09/01 12:06:43;;;;;;;7.93;3.65;;;17.40;92.00;;;;;;5089002;28;20076;-70
2021/09/01 12:09:14;;;;;;;8.60;3.95;;;17.50;92.30;;;;;;5107553;28;20023;-72
2021/09/01 12:11:48;;;;;;;10.70;4.22;;;17.50;92.40;;;;;;5107985;28;20038;-70
2021/09/01 12:14:14;;;;;;;9.05;3.85;;;17.50;92.60;;;;;;5108141;28;20039;-72
2021/09/01 12:16:40;;;;;;;8.15;4.30;;;17.40;92.70;;;;;;5089566;28;20038;-71
2021/09/01 12:19:11;;;;;;;8.98;3.67;;;17.40;92.60;;;;;;5107883;28;20019;-71
2021/09/01 12:21:52;;;;;;;;;;;17.40;92.50;;;;;;5108330;28;20030;-72
2021/09/01 12:24:32;;;;;;;9.65;3.80;;;17.40;92.70;;;;;;5112667;28;19911;-70
2021/09/01 12:27:09;;;;;;;12.60;4.65;;;17.40;92.50;;;;;;5108017;28;20036;-71
2021/09/01 12:29:49;;;;;;;8.07;3.92;;;17.40;92.10;;;;;;5092329;28;20136;-71
2021/09/01 12:32:20;;;;;;;9.75;4.15;;;17.40;92.20;;;;;;5090078;28;20039;-70
2021/09/01 12:34:52;;;;;;;9.18;4.60;;;17.40;91.80;;;;;;5089602;28;20047;-72
2021/09/01 12:37:25;;;;;;;10.88;4.72;;;17.40;91.50;;;;;;5107667;28;20023;-69
2021/09/01 12:39:50;;;;;;;9.98;4.00;;;17.40;91.50;;;;;;5107485;28;20028;-70
2021/09/01 12:42:24;;;;;;;9.07;4.35;;;17.50;91.60;;;;;;5107191;28;20324;-70
2021/09/01 12:45:00;;;;;;;8.82;4.10;;;17.50;91.90;;;;;;5107948;28;20016;-71
2021/09/01 12:47:27;;;;;;;8.23;3.92;;;17.50;92.20;;;;;;5107253;28;20016;-70
2021/09/01 12:49:53;;;;;;;9.43;4.00;;;17.50;92.40;;;;;;5107049;28;20377;-70